createdAt,value
2023-01-31T00:02:16.216Z,15.30
2023-01-31T00:05:58.032Z,8.05
2023-01-31T00:09:39.846Z,11.00
2023-01-31T00:13:21.640Z,13.55
2023-01-31T00:17:03.501Z,19.75
2023-01-31T00:20:45.376Z,20.10
2023-01-31T00:24:27.300Z,12.88
2023-01-31T00:28:09.134Z,11.40
2023-01-31T00:31:51.564Z,11.73
2023-01-31T00:35:33.411Z,12.23
2023-01-31T00:39:15.279Z,16.45
2023-01-31T00:42:57.124Z,13.10
2023-01-31T00:46:43.139Z,13.20
2023-01-31T00:50:25.574Z,13.65
2023-01-31T00:54:07.451Z,9.48
2023-01-31T00:57:50.862Z,12.77
2023-01-31T01:01:33.282Z,18.70
2023-01-31T01:05:15.515Z,9.65
2023-01-31T01:08:59.862Z,13.75
2023-01-31T01:12:41.763Z,9.73
2023-01-31T01:16:26.570Z,12.65
2023-01-31T01:20:09.307Z,16.38
2023-01-31T01:23:51.549Z,14.40
2023-01-31T01:27:34.371Z,12.63
2023-01-31T01:31:38.176Z,14.70
2023-01-31T01:35:21.417Z,12.20
2023-01-31T01:39:09.082Z,15.57
2023-01-31T01:42:50.988Z,16.08
2023-01-31T01:46:41.132Z,11.40
2023-01-31T01:50:23.014Z,12.30
2023-01-31T01:54:10.146Z,13.98
2023-01-31T01:57:56.651Z,17.13
2023-01-31T02:01:39.572Z,12.07
2023-01-31T02:05:26.149Z,9.43
2023-01-31T02:09:12.943Z,9.23
2023-01-31T02:13:00.336Z,13.25
2023-01-31T02:16:42.196Z,13.68
2023-01-31T02:20:31.539Z,10.32
2023-01-31T02:24:22.516Z,12.63
2023-01-31T02:28:25.434Z,10.73
2023-01-31T02:32:40.771Z,17.10
2023-01-31T02:36:32.413Z,8.80
2023-01-31T02:40:29.468Z,10.13
2023-01-31T02:44:41.709Z,11.38
2023-01-31T02:48:33.800Z,12.82
2023-01-31T02:52:35.391Z,12.52
2023-01-31T02:56:31.217Z,8.23
2023-01-31T03:00:14.181Z,11.30
2023-01-31T03:04:03.089Z,11.18
2023-01-31T03:07:49.854Z,7.80
2023-01-31T03:12:06.455Z,14.95
2023-01-31T03:16:12.943Z,12.98
2023-01-31T03:20:48.607Z,11.68
2023-01-31T03:24:31.808Z,14.82
2023-01-31T03:28:19.175Z,10.20
2023-01-31T03:35:57.568Z,13.05
2023-01-31T03:39:51.283Z,13.25
2023-01-31T03:43:42.339Z,7.10
2023-01-31T03:47:30.684Z,11.82
2023-01-31T03:51:19.474Z,18.30
2023-01-31T03:55:17.075Z,15.10
2023-01-31T03:59:03.068Z,10.40
2023-01-31T04:02:48.890Z,8.95
2023-01-31T04:06:30.927Z,13.82
2023-01-31T04:10:17.620Z,12.52
2023-01-31T04:13:59.414Z,13.30
2023-01-31T04:17:41.279Z,8.88
2023-01-31T04:21:23.476Z,8.32
2023-01-31T04:25:05.995Z,13.73
2023-01-31T04:28:47.796Z,7.25
2023-01-31T04:32:29.713Z,6.63
2023-01-31T04:36:11.696Z,15.00
2023-01-31T04:39:59.168Z,8.60
2023-01-31T04:47:22.986Z,7.57
2023-01-31T04:51:04.930Z,15.43
2023-01-31T04:54:46.725Z,10.18
2023-01-31T04:58:28.745Z,11.32
2023-01-31T05:02:10.652Z,8.38
2023-01-31T05:05:52.494Z,10.20
2023-01-31T05:09:34.307Z,14.48
2023-01-31T05:13:16.393Z,9.27
2023-01-31T05:17:02.243Z,25.92
2023-01-31T05:20:44.030Z,12.80
2023-01-31T05:24:31.464Z,11.65
2023-01-31T05:28:13.315Z,11.93
2023-01-31T05:31:57.760Z,9.43
2023-01-31T05:35:42.076Z,14.18
2023-01-31T05:39:28.893Z,10.38
2023-01-31T05:43:10.732Z,8.82
2023-01-31T05:47:16.127Z,8.55
2023-01-31T05:51:02.313Z,16.60
2023-01-31T05:54:44.244Z,13.23
2023-01-31T05:58:29.618Z,13.05
2023-01-31T06:02:11.538Z,9.95
2023-01-31T06:05:53.794Z,14.95
2023-01-31T06:09:38.716Z,12.27
2023-01-31T06:13:20.609Z,13.00
2023-01-31T06:17:02.426Z,11.02
2023-01-31T06:20:44.536Z,13.07
2023-01-31T06:24:26.351Z,8.93
2023-01-31T06:28:08.235Z,12.70
2023-01-31T06:31:50.040Z,7.95
2023-01-31T06:35:33.963Z,13.57
2023-01-31T06:39:16.010Z,12.73
2023-01-31T06:42:59.023Z,14.52
2023-01-31T06:50:25.333Z,14.90
2023-01-31T06:54:07.141Z,14.75
2023-01-31T06:57:49.839Z,8.85
2023-01-31T07:01:31.682Z,9.68
2023-01-31T07:05:13.759Z,13.20
2023-01-31T07:09:21.388Z,15.50
2023-01-31T07:13:03.547Z,19.42
2023-01-31T07:16:45.592Z,14.35
2023-01-31T07:20:27.595Z,14.45
2023-01-31T07:24:09.704Z,13.75
2023-01-31T07:28:00.615Z,14.13
2023-01-31T07:31:46.466Z,18.77
2023-01-31T07:35:28.942Z,18.25
2023-01-31T07:39:10.845Z,18.10
2023-01-31T07:42:58.459Z,14.32
2023-01-31T07:46:59.284Z,15.38
2023-01-31T07:51:08.243Z,15.73
2023-01-31T07:54:50.049Z,17.83
2023-01-31T07:58:32.028Z,10.63
2023-01-31T08:02:34.764Z,10.77
2023-01-31T08:06:16.676Z,14.43
2023-01-31T08:09:58.500Z,11.80
2023-01-31T08:13:40.726Z,18.08
2023-01-31T08:17:22.625Z,9.95
2023-01-31T08:21:05.026Z,12.25
2023-01-31T08:24:46.869Z,9.40
2023-01-31T08:28:29.254Z,11.32
2023-01-31T08:32:11.102Z,17.13
2023-01-31T08:35:52.973Z,10.05
2023-01-31T08:39:34.824Z,10.23
2023-01-31T08:43:16.670Z,8.57
2023-01-31T08:47:02.189Z,9.30
2023-01-31T08:50:44.065Z,8.50
2023-01-31T08:54:25.918Z,6.05
2023-01-31T08:58:07.778Z,8.43
2023-01-31T09:01:49.635Z,4.75
2023-01-31T09:05:32.242Z,6.18
2023-01-31T09:09:14.086Z,4.18
2023-01-31T09:12:55.901Z,3.35
2023-01-31T09:16:39.002Z,4.63
2023-01-31T09:20:21.080Z,5.60
2023-01-31T09:24:03.824Z,5.68
2023-01-31T09:27:45.787Z,3.55
2023-01-31T09:31:27.686Z,2.08
2023-01-31T09:35:09.511Z,4.57
2023-01-31T09:38:55.659Z,5.85
2023-01-31T09:42:43.714Z,5.97
2023-01-31T09:46:32.371Z,5.45
2023-01-31T09:50:21.785Z,4.30
2023-01-31T09:54:08.185Z,5.47
2023-01-31T09:57:52.695Z,3.37
2023-01-31T10:01:43.780Z,4.65
2023-01-31T10:05:54.608Z,4.85
2023-01-31T10:09:42.515Z,4.72
2023-01-31T10:13:35.396Z,3.58
2023-01-31T10:17:38.521Z,6.35
2023-01-31T10:21:27.928Z,4.70
2023-01-31T10:25:24.593Z,7.50
2023-01-31T10:29:29.515Z,3.72
2023-01-31T10:33:43.445Z,4.07
2023-01-31T10:37:39.451Z,4.25
2023-01-31T10:41:57.671Z,5.90
2023-01-31T10:45:39.563Z,6.65
2023-01-31T10:49:24.400Z,3.97
2023-01-31T10:53:33.107Z,10.70
2023-01-31T10:57:15.742Z,9.07
2023-01-31T11:00:58.393Z,8.52
2023-01-31T11:04:43.326Z,8.10
2023-01-31T11:08:42.479Z,4.90
2023-01-31T11:12:43.105Z,10.48
2023-01-31T11:16:28.281Z,5.80
2023-01-31T11:20:21.565Z,5.40
2023-01-31T11:24:06.889Z,8.20
2023-01-31T11:27:52.402Z,7.63
2023-01-31T11:31:40.384Z,4.47
2023-01-31T11:35:28.543Z,6.57
2023-01-31T11:39:29.389Z,6.13
2023-01-31T11:43:14.616Z,8.80
2023-01-31T11:47:04.543Z,10.85
2023-01-31T11:51:01.567Z,5.82
2023-01-31T11:58:41.100Z,8.88
2023-01-31T12:02:43.325Z,13.90
2023-01-31T12:06:41.147Z,8.02
2023-01-31T12:10:40.793Z,7.80
2023-01-31T12:14:25.184Z,8.45
2023-01-31T12:18:11.642Z,13.68
2023-01-31T12:22:10.335Z,11.27
2023-01-31T12:26:01.355Z,13.23
2023-01-31T12:30:14.497Z,10.30
2023-01-31T12:34:13.667Z,12.55
2023-01-31T12:37:56.342Z,11.52
2023-01-31T12:41:42.005Z,12.82
2023-01-31T12:45:32.607Z,13.57
2023-01-31T12:49:41.825Z,12.73
2023-01-31T12:53:33.754Z,9.93
2023-01-31T12:57:18.300Z,9.93
2023-01-31T13:01:12.126Z,25.67
2023-01-31T13:05:04.358Z,15.10
2023-01-31T13:09:10.772Z,16.30
2023-01-31T13:12:53.156Z,12.50
2023-01-31T13:16:42.839Z,11.88
2023-01-31T13:20:39.762Z,12.82
2023-01-31T13:28:38.304Z,11.80
2023-01-31T13:32:34.395Z,20.98
2023-01-31T13:36:33.611Z,12.87
2023-01-31T13:40:25.000Z,13.45
2023-01-31T13:44:12.445Z,12.93
2023-01-31T13:48:01.813Z,15.45
2023-01-31T13:51:58.873Z,15.93
2023-01-31T13:55:45.418Z,17.02
2023-01-31T13:59:33.205Z,21.70
2023-01-31T14:03:20.611Z,14.85
2023-01-31T14:07:09.619Z,14.02
2023-01-31T14:10:52.216Z,14.52
2023-01-31T14:14:41.825Z,20.63
2023-01-31T14:18:41.564Z,15.07
2023-01-31T14:22:38.964Z,20.38
2023-01-31T14:26:57.644Z,14.85
2023-01-31T14:30:44.116Z,16.50
2023-01-31T14:34:30.933Z,21.40
2023-01-31T14:38:12.702Z,17.50
2023-01-31T14:41:57.279Z,16.98
2023-01-31T14:46:03.253Z,19.52
2023-01-31T14:50:05.318Z,14.20
2023-01-31T14:53:53.016Z,23.27
2023-01-31T14:57:45.780Z,13.88
2023-01-31T15:01:35.245Z,19.95
2023-01-31T15:05:32.753Z,11.63
2023-01-31T15:09:24.732Z,21.63
2023-01-31T15:13:35.381Z,17.52
2023-01-31T15:17:34.519Z,18.55
2023-01-31T15:21:25.680Z,15.68
2023-01-31T15:25:23.480Z,20.10
2023-01-31T15:29:05.734Z,14.18
2023-01-31T15:32:51.777Z,11.95
2023-01-31T15:36:44.610Z,16.65
2023-01-31T15:40:28.751Z,13.98
2023-01-31T15:44:22.393Z,20.38
2023-01-31T15:48:22.963Z,21.65
2023-01-31T15:52:16.936Z,19.63
2023-01-31T15:56:02.806Z,13.45
2023-01-31T15:59:50.221Z,13.02
2023-01-31T16:03:39.327Z,12.45
2023-01-31T16:07:23.966Z,18.02
2023-01-31T16:11:09.551Z,19.38
2023-01-31T16:14:55.045Z,12.43
2023-01-31T16:18:38.274Z,15.05
2023-01-31T16:22:31.631Z,20.50
2023-01-31T16:26:35.022Z,21.55
2023-01-31T16:30:18.561Z,17.70
2023-01-31T16:34:04.327Z,19.77
2023-01-31T16:37:46.599Z,17.80
2023-01-31T16:41:43.520Z,20.50
2023-01-31T16:45:33.137Z,18.52
2023-01-31T16:49:27.784Z,16.08
2023-01-31T16:53:25.277Z,22.20
2023-01-31T16:57:20.277Z,19.05
2023-01-31T17:01:11.999Z,29.58
2023-01-31T17:05:00.319Z,16.13
2023-01-31T17:08:43.079Z,11.45
2023-01-31T17:12:28.176Z,17.98
2023-01-31T17:16:15.139Z,20.58
2023-01-31T17:19:56.955Z,15.70
2023-01-31T17:23:40.220Z,18.98
2023-01-31T17:27:22.493Z,17.05
2023-01-31T17:31:04.651Z,16.70
2023-01-31T17:34:48.747Z,21.00
2023-01-31T17:38:30.572Z,18.85
2023-01-31T17:42:21.166Z,21.92
2023-01-31T17:46:03.057Z,17.20
2023-01-31T17:49:45.332Z,21.50
2023-01-31T17:53:30.285Z,27.48
2023-01-31T17:57:16.275Z,23.05
2023-01-31T18:00:58.213Z,26.05
2023-01-31T18:04:40.033Z,20.40
2023-01-31T18:08:23.801Z,26.38
2023-01-31T18:12:05.807Z,22.92
2023-01-31T18:15:47.653Z,18.88
2023-01-31T18:19:29.472Z,17.33
2023-01-31T18:23:11.424Z,21.88
2023-01-31T18:26:53.799Z,23.15
2023-01-31T18:30:35.628Z,17.92
2023-01-31T18:34:17.653Z,16.67
2023-01-31T18:37:59.481Z,17.83
2023-01-31T18:41:41.260Z,22.98
2023-01-31T18:45:23.397Z,24.08
2023-01-31T18:49:05.628Z,25.88
2023-01-31T18:52:47.558Z,27.17
2023-01-31T18:56:30.441Z,21.85
2023-01-31T19:00:12.797Z,29.40
2023-01-31T19:03:55.492Z,25.73
2023-01-31T19:07:37.272Z,19.52
2023-01-31T19:11:21.145Z,21.75
2023-01-31T19:15:03.050Z,25.33
2023-01-31T19:18:44.973Z,27.15
2023-01-31T19:22:28.602Z,31.38
2023-01-31T19:26:11.081Z,24.98
2023-01-31T19:29:52.885Z,19.63
2023-01-31T19:33:34.771Z,18.20
2023-01-31T19:37:16.645Z,21.67
2023-01-31T19:41:25.819Z,22.25
2023-01-31T19:45:11.354Z,23.33
2023-01-31T19:48:59.901Z,31.27
2023-01-31T19:52:41.725Z,21.92
2023-01-31T19:56:24.390Z,21.80
2023-01-31T20:00:07.036Z,18.08
2023-01-31T20:03:50.125Z,20.50
2023-01-31T20:07:31.935Z,30.67
2023-01-31T20:11:13.725Z,18.77
2023-01-31T20:14:55.548Z,25.38
2023-01-31T20:18:38.909Z,24.65
2023-01-31T20:22:22.918Z,21.05
2023-01-31T20:26:04.776Z,24.73
2023-01-31T20:29:46.658Z,32.70
2023-01-31T20:33:28.578Z,25.92
2023-01-31T20:37:11.028Z,24.85
2023-01-31T20:40:54.308Z,28.60
2023-01-31T20:44:37.260Z,29.10
2023-01-31T20:48:20.217Z,26.00
2023-01-31T20:52:02.344Z,30.65
2023-01-31T20:55:45.842Z,20.55
2023-01-31T20:59:27.612Z,20.65
2023-01-31T21:03:09.500Z,23.48
2023-01-31T21:06:51.320Z,19.83
2023-01-31T21:10:33.135Z,15.13
2023-01-31T21:14:14.953Z,25.35
2023-01-31T21:17:56.776Z,18.48
2023-01-31T21:21:38.669Z,17.73
2023-01-31T21:25:20.465Z,24.02
2023-01-31T21:29:02.539Z,24.50
2023-01-31T21:32:44.421Z,21.90
2023-01-31T21:36:26.522Z,21.38
2023-01-31T21:40:09.159Z,21.33
2023-01-31T21:43:50.989Z,21.02
2023-01-31T21:47:32.797Z,21.85
2023-01-31T21:51:16.078Z,24.00
2023-01-31T21:54:57.860Z,27.50
2023-01-31T21:58:40.839Z,26.77
2023-01-31T22:02:22.680Z,23.23
2023-01-31T22:06:09.934Z,23.52
2023-01-31T22:09:51.737Z,26.55
2023-01-31T22:13:34.194Z,20.10
2023-01-31T22:17:16.046Z,25.13
2023-01-31T22:21:01.943Z,19.75
2023-01-31T22:24:44.320Z,16.80
2023-01-31T22:28:28.477Z,29.92
2023-01-31T22:32:12.766Z,28.80
2023-01-31T22:35:54.613Z,30.45
2023-01-31T22:39:36.376Z,27.25
2023-01-31T22:43:22.870Z,16.77
2023-01-31T22:47:04.943Z,21.80
2023-01-31T22:50:58.060Z,26.38
2023-01-31T22:54:39.916Z,23.77
2023-01-31T22:58:21.819Z,20.65
2023-01-31T23:02:03.662Z,20.05
2023-01-31T23:05:45.503Z,21.13
2023-01-31T23:09:27.329Z,25.20
2023-01-31T23:13:09.953Z,16.35
2023-01-31T23:17:10.398Z,23.08
2023-01-31T23:20:52.181Z,21.98
2023-01-31T23:24:35.979Z,16.98
2023-01-31T23:28:17.788Z,19.58
2023-01-31T23:31:59.610Z,23.38
2023-01-31T23:35:41.471Z,16.08
2023-01-31T23:39:23.286Z,15.57
2023-01-31T23:43:05.114Z,21.88
2023-01-31T23:46:47.051Z,21.13
2023-01-31T23:50:28.859Z,24.42
2023-01-31T23:54:10.728Z,16.45
2023-01-31T23:57:52.619Z,32.60
